Terminal Aerodrome Forecast
Issued by NWS

Home | Current Version | Previous Version | Text Only | Print | Product List | Glossary On
Versions: 1 2 3 4 5 6 7 8 9 10 11 12 13 14 15
000
FTUS41 KBTV 061735
TAFMPV
TAF
KMPV 061735Z 0618/0718 VRB03KT P6SM BKN015
      TEMPO 0618/0620 SCT018
     FM062000 00000KT P6SM SCT020
     FM070500 15004KT P6SM VCSH OVC025
     FM070700 15004KT 1SM -SN BR OVC008
     FM071400 16005KT 4SM -SN BR OVC010
     FM071600 18006KT 4SM BR BKN015=

USA.gov is the U.S. government's official web portal to all federal, state and local government web resources and services.